Hollandsburg, Indiana
Current Conditions -  °F | °C
As of 4:15 AM on Saturday 01 Nov 2014 (Local Time) from K4I7 Reporting Station
Overcast Overcast  
Wind Chill: 23°   Ceiling: 5000
Heat Index: 32°   Visibility: 10mi
Dew Point: 25°   Wind: 13mph
Humidity: 75%   Direction: 350°N
Pressure: 30.25"   Gusts: 18mph
Location:  39.7714°N, 87.1705°W
Report Text: K4I7 010815Z AUTO 35011G16KT 10SM OVC050 00/M04 A3025 RMK AO2
Loading
Personal Weather Stations






























Interactive Weather Map
Tropical Storm Tracking
New forecast layout! Learn more

10-Day Weather Forecast

Advertisements
Track Severe Weather on mobile